sensor_id;sensor_type;location;lat;lon;timestamp;P1;durP1;ratioP1;P2;durP2;ratioP2
63807;SDS011;49961;43.970;22.868;2023-04-10T00:00:53;21.00;;;18.87;;
63807;SDS011;49961;43.970;22.868;2023-04-10T00:01:56;21.47;;;19.20;;
63807;SDS011;49961;43.970;22.868;2023-04-10T00:02:57;22.00;;;19.60;;
63807;SDS011;49961;43.970;22.868;2023-04-10T00:04:01;21.47;;;19.17;;
63807;SDS011;49961;43.970;22.868;2023-04-10T00:05:02;23.63;;;20.07;;
63807;SDS011;49961;43.970;22.868;2023-04-10T00:06:02;22.03;;;19.60;;
63807;SDS011;49961;43.970;22.868;2023-04-10T00:07:03;21.63;;;19.33;;
63807;SDS011;49961;43.970;22.868;2023-04-10T00:08:03;22.37;;;19.97;;
63807;SDS011;49961;43.970;22.868;2023-04-10T00:09:04;24.93;;;20.00;;
63807;SDS011;49961;43.970;22.868;2023-04-10T00:10:04;21.50;;;18.87;;
63807;SDS011;49961;43.970;22.868;2023-04-10T00:11:05;22.03;;;19.07;;
63807;SDS011;49961;43.970;22.868;2023-04-10T00:12:06;23.07;;;19.23;;
63807;SDS011;49961;43.970;22.868;2023-04-10T00:13:06;23.00;;;19.70;;
63807;SDS011;49961;43.970;22.868;2023-04-10T00:14:06;21.97;;;19.60;;
63807;SDS011;49961;43.970;22.868;2023-04-10T00:15:07;22.07;;;19.67;;
63807;SDS011;49961;43.970;22.868;2023-04-10T00:16:08;23.63;;;19.17;;
63807;SDS011;49961;43.970;22.868;2023-04-10T00:17:08;22.27;;;19.73;;
63807;SDS011;49961;43.970;22.868;2023-04-10T00:18:09;21.40;;;19.10;;
63807;SDS011;49961;43.970;22.868;2023-04-10T00:19:09;21.10;;;18.90;;
63807;SDS011;49961;43.970;22.868;2023-04-10T00:20:10;22.17;;;19.50;;
63807;SDS011;49961;43.970;22.868;2023-04-10T00:21:11;22.20;;;19.80;;
63807;SDS011;49961;43.970;22.868;2023-04-10T00:22:11;22.87;;;20.53;;
63807;SDS011;49961;43.970;22.868;2023-04-10T00:23:12;20.30;;;18.27;;
63807;SDS011;49961;43.970;22.868;2023-04-10T00:24:12;23.13;;;20.73;;
63807;SDS011;49961;43.970;22.868;2023-04-10T00:25:13;24.33;;;20.80;;
63807;SDS011;49961;43.970;22.868;2023-04-10T00:26:13;21.97;;;19.70;;
63807;SDS011;49961;43.970;22.868;2023-04-10T00:27:13;22.37;;;19.97;;
63807;SDS011;49961;43.970;22.868;2023-04-10T00:28:14;24.67;;;22.07;;
63807;SDS011;49961;43.970;22.868;2023-04-10T00:29:16;23.87;;;21.23;;
63807;SDS011;49961;43.970;22.868;2023-04-10T00:30:16;24.47;;;21.93;;
63807;SDS011;49961;43.970;22.868;2023-04-10T00:31:17;24.33;;;21.73;;
63807;SDS011;49961;43.970;22.868;2023-04-10T00:32:17;24.67;;;22.10;;
63807;SDS011;49961;43.970;22.868;2023-04-10T00:33:18;24.80;;;22.00;;
63807;SDS011;49961;43.970;22.868;2023-04-10T00:34:18;24.57;;;21.97;;
63807;SDS011;49961;43.970;22.868;2023-04-10T00:35:18;25.00;;;22.30;;
63807;SDS011;49961;43.970;22.868;2023-04-10T00:36:19;24.50;;;21.90;;
63807;SDS011;49961;43.970;22.868;2023-04-10T00:37:20;26.83;;;22.77;;
63807;SDS011;49961;43.970;22.868;2023-04-10T00:38:20;26.67;;;23.83;;
63807;SDS011;49961;43.970;22.868;2023-04-10T00:39:21;26.60;;;23.80;;
63807;SDS011;49961;43.970;22.868;2023-04-10T00:40:21;26.33;;;23.63;;
63807;SDS011;49961;43.970;22.868;2023-04-10T00:41:22;27.67;;;24.77;;
63807;SDS011;49961;43.970;22.868;2023-04-10T00:42:22;27.27;;;23.40;;
63807;SDS011;49961;43.970;22.868;2023-04-10T00:43:23;25.10;;;22.50;;
63807;SDS011;49961;43.970;22.868;2023-04-10T00:44:23;25.20;;;22.60;;
63807;SDS011;49961;43.970;22.868;2023-04-10T00:45:24;24.87;;;22.23;;
63807;SDS011;49961;43.970;22.868;2023-04-10T00:46:24;25.47;;;21.67;;
63807;SDS011;49961;43.970;22.868;2023-04-10T00:47:26;23.47;;;20.93;;
63807;SDS011;49961;43.970;22.868;2023-04-10T00:48:27;24.73;;;21.63;;
63807;SDS011;49961;43.970;22.868;2023-04-10T00:49:28;24.03;;;21.43;;
63807;SDS011;49961;43.970;22.868;2023-04-10T00:50:30;24.30;;;21.70;;
63807;SDS011;49961;43.970;22.868;2023-04-10T00:51:31;24.23;;;21.00;;
63807;SDS011;49961;43.970;22.868;2023-04-10T00:52:31;23.80;;;20.07;;
63807;SDS011;49961;43.970;22.868;2023-04-10T00:53:32;22.93;;;19.47;;
63807;SDS011;49961;43.970;22.868;2023-04-10T00:54:32;22.97;;;20.47;;
63807;SDS011;49961;43.970;22.868;2023-04-10T00:55:35;28.33;;;19.53;;
63807;SDS011;49961;43.970;22.868;2023-04-10T00:56:36;27.83;;;20.13;;
63807;SDS011;49961;43.970;22.868;2023-04-10T00:57:36;26.80;;;19.87;;
63807;SDS011;49961;43.970;22.868;2023-04-10T00:58:37;27.73;;;20.27;;
63807;SDS011;49961;43.970;22.868;2023-04-10T00:59:37;31.40;;;19.83;;
63807;SDS011;49961;43.970;22.868;2023-04-10T01:00:38;32.03;;;20.63;;
63807;SDS011;49961;43.970;22.868;2023-04-10T01:01:40;28.37;;;19.70;;
63807;SDS011;49961;43.970;22.868;2023-04-10T01:02:40;30.57;;;20.57;;
63807;SDS011;49961;43.970;22.868;2023-04-10T01:03:41;29.23;;;20.30;;
63807;SDS011;49961;43.970;22.868;2023-04-10T01:04:42;27.20;;;21.03;;
63807;SDS011;49961;43.970;22.868;2023-04-10T01:05:57;26.80;;;19.53;;
63807;SDS011;49961;43.970;22.868;2023-04-10T01:13:47;22.30;;;19.90;;
63807;SDS011;49961;43.970;22.868;2023-04-10T01:16:15;24.00;;;19.77;;
63807;SDS011;49961;43.970;22.868;2023-04-10T01:18:55;23.10;;;17.63;;
63807;SDS011;49961;43.970;22.868;2023-04-10T01:20:03;21.50;;;17.70;;
63807;SDS011;49961;43.970;22.868;2023-04-10T01:21:09;22.33;;;17.43;;
63807;SDS011;49961;43.970;22.868;2023-04-10T01:22:11;27.47;;;18.20;;
63807;SDS011;49961;43.970;22.868;2023-04-10T01:23:20;32.90;;;19.83;;
63807;SDS011;49961;43.970;22.868;2023-04-10T01:27:09;23.17;;;18.93;;
63807;SDS011;49961;43.970;22.868;2023-04-10T01:29:18;26.80;;;19.67;;
63807;SDS011;49961;43.970;22.868;2023-04-10T01:30:20;23.23;;;18.83;;
63807;SDS011;49961;43.970;22.868;2023-04-10T01:33:02;23.30;;;18.30;;
63807;SDS011;49961;43.970;22.868;2023-04-10T01:34:10;20.30;;;17.77;;
63807;SDS011;49961;43.970;22.868;2023-04-10T01:35:20;25.23;;;18.80;;
63807;SDS011;49961;43.970;22.868;2023-04-10T01:36:23;22.47;;;18.17;;
63807;SDS011;49961;43.970;22.868;2023-04-10T01:37:29;19.97;;;17.87;;
63807;SDS011;49961;43.970;22.868;2023-04-10T01:38:31;22.00;;;18.83;;
63807;SDS011;49961;43.970;22.868;2023-04-10T01:39:34;20.93;;;18.73;;
63807;SDS011;49961;43.970;22.868;2023-04-10T01:40:38;23.33;;;19.40;;
63807;SDS011;49961;43.970;22.868;2023-04-10T01:41:38;22.42;;;19.85;;
63807;SDS011;49961;43.970;22.868;2023-04-10T01:42:45;21.90;;;19.23;;
63807;SDS011;49961;43.970;22.868;2023-04-10T01:43:50;21.15;;;18.92;;
63807;SDS011;49961;43.970;22.868;2023-04-10T01:44:51;23.00;;;19.20;;
63807;SDS011;49961;43.970;22.868;2023-04-10T01:45:53;22.93;;;19.50;;
63807;SDS011;49961;43.970;22.868;2023-04-10T01:46:56;22.53;;;19.53;;
63807;SDS011;49961;43.970;22.868;2023-04-10T01:47:58;22.83;;;18.87;;
63807;SDS011;49961;43.970;22.868;2023-04-10T01:48:59;24.50;;;19.03;;
63807;SDS011;49961;43.970;22.868;2023-04-10T01:50:01;21.50;;;19.20;;
63807;SDS011;49961;43.970;22.868;2023-04-10T01:51:03;22.07;;;19.67;;
63807;SDS011;49961;43.970;22.868;2023-04-10T01:52:05;25.80;;;19.83;;
63807;SDS011;49961;43.970;22.868;2023-04-10T01:53:06;26.30;;;19.03;;
63807;SDS011;49961;43.970;22.868;2023-04-10T01:54:08;24.10;;;19.67;;
63807;SDS011;49961;43.970;22.868;2023-04-10T01:55:09;24.70;;;19.90;;
63807;SDS011;49961;43.970;22.868;2023-04-10T01:56:09;25.60;;;20.53;;
63807;SDS011;49961;43.970;22.868;2023-04-10T01:57:11;25.50;;;20.83;;
63807;SDS011;49961;43.970;22.868;2023-04-10T01:58:14;24.30;;;20.10;;
63807;SDS011;49961;43.970;22.868;2023-04-10T01:59:14;24.53;;;20.53;;
63807;SDS011;49961;43.970;22.868;2023-04-10T02:00:15;29.27;;;21.23;;
63807;SDS011;49961;43.970;22.868;2023-04-10T02:01:19;26.70;;;19.87;;
63807;SDS011;49961;43.970;22.868;2023-04-10T02:02:20;26.67;;;20.63;;
63807;SDS011;49961;43.970;22.868;2023-04-10T02:03:21;27.57;;;20.10;;
63807;SDS011;49961;43.970;22.868;2023-04-10T02:04:21;26.20;;;20.57;;
63807;SDS011;49961;43.970;22.868;2023-04-10T02:05:22;24.27;;;18.77;;
63807;SDS011;49961;43.970;22.868;2023-04-10T02:06:45;20.60;;;18.30;;
63807;SDS011;49961;43.970;22.868;2023-04-10T02:07:59;22.27;;;19.10;;
63807;SDS011;49961;43.970;22.868;2023-04-10T02:09:07;23.03;;;17.30;;
63807;SDS011;49961;43.970;22.868;2023-04-10T02:10:21;23.10;;;19.70;;
63807;SDS011;49961;43.970;22.868;2023-04-10T02:11:30;20.53;;;18.43;;
63807;SDS011;49961;43.970;22.868;2023-04-10T02:13:10;21.13;;;18.47;;
63807;SDS011;49961;43.970;22.868;2023-04-10T02:14:06;24.93;;;18.80;;
63807;SDS011;49961;43.970;22.868;2023-04-10T02:15:10;24.90;;;20.27;;
63807;SDS011;49961;43.970;22.868;2023-04-10T02:16:11;28.63;;;21.63;;
63807;SDS011;49961;43.970;22.868;2023-04-10T02:17:17;25.27;;;20.10;;
63807;SDS011;49961;43.970;22.868;2023-04-10T02:18:22;25.60;;;19.73;;
63807;SDS011;49961;43.970;22.868;2023-04-10T02:19:24;28.03;;;22.23;;
63807;SDS011;49961;43.970;22.868;2023-04-10T02:20:26;26.80;;;21.57;;
63807;SDS011;49961;43.970;22.868;2023-04-10T02:21:27;30.37;;;20.50;;
63807;SDS011;49961;43.970;22.868;2023-04-10T02:22:28;26.30;;;20.90;;
63807;SDS011;49961;43.970;22.868;2023-04-10T02:23:28;24.40;;;20.13;;
63807;SDS011;49961;43.970;22.868;2023-04-10T02:24:29;23.80;;;20.33;;
63807;SDS011;49961;43.970;22.868;2023-04-10T02:25:31;27.40;;;20.20;;
63807;SDS011;49961;43.970;22.868;2023-04-10T02:26:48;28.37;;;20.37;;
63807;SDS011;49961;43.970;22.868;2023-04-10T02:27:50;26.40;;;21.10;;
63807;SDS011;49961;43.970;22.868;2023-04-10T02:28:50;24.63;;;20.03;;
63807;SDS011;49961;43.970;22.868;2023-04-10T02:29:50;23.47;;;20.30;;
63807;SDS011;49961;43.970;22.868;2023-04-10T02:30:51;28.37;;;20.80;;
63807;SDS011;49961;43.970;22.868;2023-04-10T02:31:52;34.30;;;20.27;;
63807;SDS011;49961;43.970;22.868;2023-04-10T02:32:52;32.17;;;20.60;;
63807;SDS011;49961;43.970;22.868;2023-04-10T02:33:52;31.90;;;20.00;;
63807;SDS011;49961;43.970;22.868;2023-04-10T02:34:53;30.00;;;20.13;;
63807;SDS011;49961;43.970;22.868;2023-04-10T02:35:54;28.97;;;19.20;;
63807;SDS011;49961;43.970;22.868;2023-04-10T02:36:54;24.27;;;19.97;;
63807;SDS011;49961;43.970;22.868;2023-04-10T02:37:55;25.47;;;20.37;;
63807;SDS011;49961;43.970;22.868;2023-04-10T02:38:56;25.20;;;20.17;;
63807;SDS011;49961;43.970;22.868;2023-04-10T02:39:56;23.87;;;19.63;;
63807;SDS011;49961;43.970;22.868;2023-04-10T02:40:57;27.83;;;20.10;;
63807;SDS011;49961;43.970;22.868;2023-04-10T02:41:57;26.90;;;20.00;;
63807;SDS011;49961;43.970;22.868;2023-04-10T02:42:57;23.83;;;19.40;;
63807;SDS011;49961;43.970;22.868;2023-04-10T02:43:58;23.77;;;20.00;;
63807;SDS011;49961;43.970;22.868;2023-04-10T02:44:58;27.20;;;19.73;;
63807;SDS011;49961;43.970;22.868;2023-04-10T02:45:59;25.27;;;20.80;;
63807;SDS011;49961;43.970;22.868;2023-04-10T02:46:59;23.97;;;20.90;;
63807;SDS011;49961;43.970;22.868;2023-04-10T02:48:00;24.83;;;20.73;;
63807;SDS011;49961;43.970;22.868;2023-04-10T02:49:00;26.60;;;20.83;;
63807;SDS011;49961;43.970;22.868;2023-04-10T02:50:01;27.07;;;20.37;;
63807;SDS011;49961;43.970;22.868;2023-04-10T02:51:01;25.63;;;19.73;;
63807;SDS011;49961;43.970;22.868;2023-04-10T02:52:02;27.67;;;20.83;;
63807;SDS011;49961;43.970;22.868;2023-04-10T02:53:03;27.30;;;20.10;;
63807;SDS011;49961;43.970;22.868;2023-04-10T02:54:03;24.90;;;20.63;;
63807;SDS011;49961;43.970;22.868;2023-04-10T02:55:04;25.50;;;20.60;;
63807;SDS011;49961;43.970;22.868;2023-04-10T02:56:05;27.10;;;20.50;;
63807;SDS011;49961;43.970;22.868;2023-04-10T02:57:07;25.75;;;20.40;;
63807;SDS011;49961;43.970;22.868;2023-04-10T02:58:07;25.97;;;20.97;;
63807;SDS011;49961;43.970;22.868;2023-04-10T02:59:07;21.83;;;19.53;;
63807;SDS011;49961;43.970;22.868;2023-04-10T03:00:08;27.07;;;20.90;;
63807;SDS011;49961;43.970;22.868;2023-04-10T03:01:09;22.27;;;19.83;;
63807;SDS011;49961;43.970;22.868;2023-04-10T03:02:10;24.93;;;20.13;;
63807;SDS011;49961;43.970;22.868;2023-04-10T03:03:10;22.70;;;20.13;;
63807;SDS011;49961;43.970;22.868;2023-04-10T03:04:10;23.07;;;20.17;;
63807;SDS011;49961;43.970;22.868;2023-04-10T03:05:11;22.57;;;19.00;;
63807;SDS011;49961;43.970;22.868;2023-04-10T03:06:12;24.40;;;20.07;;
63807;SDS011;49961;43.970;22.868;2023-04-10T03:07:12;22.57;;;20.13;;
63807;SDS011;49961;43.970;22.868;2023-04-10T03:08:13;28.53;;;21.67;;
63807;SDS011;49961;43.970;22.868;2023-04-10T03:09:13;26.07;;;21.47;;
63807;SDS011;49961;43.970;22.868;2023-04-10T03:10:14;29.37;;;21.10;;
63807;SDS011;49961;43.970;22.868;2023-04-10T03:11:14;25.00;;;19.73;;
63807;SDS011;49961;43.970;22.868;2023-04-10T03:12:15;30.70;;;20.93;;
63807;SDS011;49961;43.970;22.868;2023-04-10T03:13:15;28.13;;;20.60;;
63807;SDS011;49961;43.970;22.868;2023-04-10T03:14:16;23.00;;;20.57;;
63807;SDS011;49961;43.970;22.868;2023-04-10T03:15:17;27.40;;;20.90;;
63807;SDS011;49961;43.970;22.868;2023-04-10T03:16:17;30.33;;;20.70;;
63807;SDS011;49961;43.970;22.868;2023-04-10T03:17:18;26.33;;;20.77;;
63807;SDS011;49961;43.970;22.868;2023-04-10T03:18:18;21.80;;;19.60;;
63807;SDS011;49961;43.970;22.868;2023-04-10T03:19:18;23.33;;;20.17;;
63807;SDS011;49961;43.970;22.868;2023-04-10T03:20:19;24.40;;;19.37;;
63807;SDS011;49961;43.970;22.868;2023-04-10T03:21:19;22.83;;;20.43;;
63807;SDS011;49961;43.970;22.868;2023-04-10T03:22:20;23.67;;;19.43;;
63807;SDS011;49961;43.970;22.868;2023-04-10T03:23:21;22.63;;;20.23;;
63807;SDS011;49961;43.970;22.868;2023-04-10T03:24:21;22.77;;;20.40;;
63807;SDS011;49961;43.970;22.868;2023-04-10T03:25:22;21.67;;;19.27;;
63807;SDS011;49961;43.970;22.868;2023-04-10T03:26:22;23.93;;;21.33;;
63807;SDS011;49961;43.970;22.868;2023-04-10T03:27:23;23.73;;;20.77;;
63807;SDS011;49961;43.970;22.868;2023-04-10T03:28:23;25.47;;;20.37;;
63807;SDS011;49961;43.970;22.868;2023-04-10T03:29:24;26.63;;;21.17;;
63807;SDS011;49961;43.970;22.868;2023-04-10T03:30:24;25.43;;;20.53;;
63807;SDS011;49961;43.970;22.868;2023-04-10T03:31:26;22.50;;;20.03;;
63807;SDS011;49961;43.970;22.868;2023-04-10T03:32:27;25.20;;;21.07;;
63807;SDS011;49961;43.970;22.868;2023-04-10T03:33:30;23.57;;;21.07;;
63807;SDS011;49961;43.970;22.868;2023-04-10T03:34:30;27.33;;;20.57;;
63807;SDS011;49961;43.970;22.868;2023-04-10T03:35:30;24.20;;;20.43;;
63807;SDS011;49961;43.970;22.868;2023-04-10T03:36:31;25.73;;;20.23;;
63807;SDS011;49961;43.970;22.868;2023-04-10T03:37:31;33.67;;;21.40;;
63807;SDS011;49961;43.970;22.868;2023-04-10T03:38:32;31.93;;;21.07;;
63807;SDS011;49961;43.970;22.868;2023-04-10T03:39:33;34.33;;;20.13;;
63807;SDS011;49961;43.970;22.868;2023-04-10T03:40:33;32.30;;;20.57;;
63807;SDS011;49961;43.970;22.868;2023-04-10T03:41:34;29.57;;;20.83;;
63807;SDS011;49961;43.970;22.868;2023-04-10T03:42:35;28.80;;;20.37;;
63807;SDS011;49961;43.970;22.868;2023-04-10T03:43:35;33.33;;;21.97;;
63807;SDS011;49961;43.970;22.868;2023-04-10T03:44:36;37.13;;;21.70;;
63807;SDS011;49961;43.970;22.868;2023-04-10T03:45:37;32.80;;;21.87;;
63807;SDS011;49961;43.970;22.868;2023-04-10T03:46:37;32.17;;;22.03;;
63807;SDS011;49961;43.970;22.868;2023-04-10T03:47:37;25.53;;;21.53;;
63807;SDS011;49961;43.970;22.868;2023-04-10T03:48:38;35.77;;;20.87;;
63807;SDS011;49961;43.970;22.868;2023-04-10T03:49:38;33.37;;;21.57;;
63807;SDS011;49961;43.970;22.868;2023-04-10T03:50:39;37.70;;;21.23;;
63807;SDS011;49961;43.970;22.868;2023-04-10T03:51:39;35.20;;;22.23;;
63807;SDS011;49961;43.970;22.868;2023-04-10T03:52:40;33.07;;;21.60;;
63807;SDS011;49961;43.970;22.868;2023-04-10T03:53:40;33.67;;;20.67;;
63807;SDS011;49961;43.970;22.868;2023-04-10T03:54:40;32.80;;;21.80;;
63807;SDS011;49961;43.970;22.868;2023-04-10T03:55:41;31.03;;;20.90;;
63807;SDS011;49961;43.970;22.868;2023-04-10T03:56:41;31.87;;;22.20;;
63807;SDS011;49961;43.970;22.868;2023-04-10T03:57:42;31.57;;;21.43;;
63807;SDS011;49961;43.970;22.868;2023-04-10T03:58:42;30.07;;;21.77;;
63807;SDS011;49961;43.970;22.868;2023-04-10T03:59:43;32.07;;;20.77;;
63807;SDS011;49961;43.970;22.868;2023-04-10T04:00:44;27.57;;;21.13;;
63807;SDS011;49961;43.970;22.868;2023-04-10T04:01:45;23.60;;;20.67;;
63807;SDS011;49961;43.970;22.868;2023-04-10T04:02:46;27.13;;;20.93;;
63807;SDS011;49961;43.970;22.868;2023-04-10T04:03:47;25.37;;;20.93;;
63807;SDS011;49961;43.970;22.868;2023-04-10T04:04:47;23.63;;;21.03;;
63807;SDS011;49961;43.970;22.868;2023-04-10T04:05:48;28.37;;;21.70;;
63807;SDS011;49961;43.970;22.868;2023-04-10T04:06:48;25.27;;;20.87;;
63807;SDS011;49961;43.970;22.868;2023-04-10T04:07:49;23.97;;;21.43;;
63807;SDS011;49961;43.970;22.868;2023-04-10T04:08:49;24.27;;;21.60;;
63807;SDS011;49961;43.970;22.868;2023-04-10T04:09:50;26.30;;;22.13;;
63807;SDS011;49961;43.970;22.868;2023-04-10T04:10:50;25.23;;;21.63;;
63807;SDS011;49961;43.970;22.868;2023-04-10T04:11:50;23.87;;;21.37;;
63807;SDS011;49961;43.970;22.868;2023-04-10T04:12:51;25.27;;;21.93;;
63807;SDS011;49961;43.970;22.868;2023-04-10T04:13:51;26.97;;;21.83;;
63807;SDS011;49961;43.970;22.868;2023-04-10T04:14:52;23.33;;;20.83;;
63807;SDS011;49961;43.970;22.868;2023-04-10T04:15:52;23.50;;;20.83;;
63807;SDS011;49961;43.970;22.868;2023-04-10T04:16:53;23.30;;;20.57;;
63807;SDS011;49961;43.970;22.868;2023-04-10T04:17:54;23.90;;;21.40;;
63807;SDS011;49961;43.970;22.868;2023-04-10T04:18:56;23.63;;;21.23;;
63807;SDS011;49961;43.970;22.868;2023-04-10T04:19:56;23.03;;;20.53;;
63807;SDS011;49961;43.970;22.868;2023-04-10T04:20:57;22.57;;;20.13;;
63807;SDS011;49961;43.970;22.868;2023-04-10T04:21:57;23.40;;;20.93;;
63807;SDS011;49961;43.970;22.868;2023-04-10T04:22:59;23.87;;;21.30;;
63807;SDS011;49961;43.970;22.868;2023-04-10T04:23:59;35.83;;;22.53;;
63807;SDS011;49961;43.970;22.868;2023-04-10T04:25:00;35.10;;;22.37;;
63807;SDS011;49961;43.970;22.868;2023-04-10T04:26:00;41.13;;;24.20;;
63807;SDS011;49961;43.970;22.868;2023-04-10T04:27:01;36.67;;;22.37;;
63807;SDS011;49961;43.970;22.868;2023-04-10T04:28:01;34.60;;;22.00;;
63807;SDS011;49961;43.970;22.868;2023-04-10T04:29:02;27.87;;;21.37;;
63807;SDS011;49961;43.970;22.868;2023-04-10T04:30:03;34.27;;;21.67;;
63807;SDS011;49961;43.970;22.868;2023-04-10T04:31:05;26.10;;;21.53;;
63807;SDS011;49961;43.970;22.868;2023-04-10T04:32:05;23.63;;;20.13;;
63807;SDS011;49961;43.970;22.868;2023-04-10T04:33:06;26.80;;;21.07;;
63807;SDS011;49961;43.970;22.868;2023-04-10T04:34:06;24.27;;;20.63;;
63807;SDS011;49961;43.970;22.868;2023-04-10T04:35:07;26.47;;;20.93;;
63807;SDS011;49961;43.970;22.868;2023-04-10T04:36:08;27.57;;;21.10;;
63807;SDS011;49961;43.970;22.868;2023-04-10T04:37:08;36.37;;;21.83;;
63807;SDS011;49961;43.970;22.868;2023-04-10T04:38:09;38.60;;;22.53;;
63807;SDS011;49961;43.970;22.868;2023-04-10T04:39:09;47.23;;;25.00;;
63807;SDS011;49961;43.970;22.868;2023-04-10T04:40:10;55.67;;;24.20;;
63807;SDS011;49961;43.970;22.868;2023-04-10T04:41:10;50.00;;;24.60;;
63807;SDS011;49961;43.970;22.868;2023-04-10T04:42:11;47.53;;;23.87;;
63807;SDS011;49961;43.970;22.868;2023-04-10T04:43:11;41.87;;;23.20;;
63807;SDS011;49961;43.970;22.868;2023-04-10T04:44:12;50.63;;;23.40;;
63807;SDS011;49961;43.970;22.868;2023-04-10T04:45:12;40.77;;;23.77;;
63807;SDS011;49961;43.970;22.868;2023-04-10T04:46:13;43.47;;;23.53;;
63807;SDS011;49961;43.970;22.868;2023-04-10T04:47:13;41.07;;;22.37;;
63807;SDS011;49961;43.970;22.868;2023-04-10T04:48:14;40.13;;;23.57;;
63807;SDS011;49961;43.970;22.868;2023-04-10T04:49:14;34.60;;;22.77;;
63807;SDS011;49961;43.970;22.868;2023-04-10T04:50:15;37.43;;;24.07;;
63807;SDS011;49961;43.970;22.868;2023-04-10T04:51:15;35.70;;;23.57;;
63807;SDS011;49961;43.970;22.868;2023-04-10T04:52:16;34.43;;;23.57;;
63807;SDS011;49961;43.970;22.868;2023-04-10T04:53:16;37.97;;;24.33;;
63807;SDS011;49961;43.970;22.868;2023-04-10T04:54:17;37.97;;;24.00;;
63807;SDS011;49961;43.970;22.868;2023-04-10T04:55:17;35.33;;;23.83;;
63807;SDS011;49961;43.970;22.868;2023-04-10T04:56:18;29.97;;;23.57;;
63807;SDS011;49961;43.970;22.868;2023-04-10T04:57:18;34.97;;;23.50;;
63807;SDS011;49961;43.970;22.868;2023-04-10T04:58:19;34.33;;;25.53;;
63807;SDS011;49961;43.970;22.868;2023-04-10T04:59:20;35.23;;;26.23;;
63807;SDS011;49961;43.970;22.868;2023-04-10T05:00:20;31.50;;;26.37;;
63807;SDS011;49961;43.970;22.868;2023-04-10T05:01:21;31.77;;;27.37;;
63807;SDS011;49961;43.970;22.868;2023-04-10T05:02:21;30.63;;;27.37;;
63807;SDS011;49961;43.970;22.868;2023-04-10T05:03:21;37.10;;;28.87;;
63807;SDS011;49961;43.970;22.868;2023-04-10T05:04:22;38.30;;;28.40;;
63807;SDS011;49961;43.970;22.868;2023-04-10T05:05:22;33.07;;;27.27;;
63807;SDS011;49961;43.970;22.868;2023-04-10T05:06:23;34.90;;;28.20;;
63807;SDS011;49961;43.970;22.868;2023-04-10T05:07:23;37.73;;;28.37;;
63807;SDS011;49961;43.970;22.868;2023-04-10T05:08:24;36.70;;;27.67;;
63807;SDS011;49961;43.970;22.868;2023-04-10T05:09:24;38.00;;;27.83;;
63807;SDS011;49961;43.970;22.868;2023-04-10T05:10:24;26.97;;;22.90;;
63807;SDS011;49961;43.970;22.868;2023-04-10T05:11:25;31.70;;;25.40;;
63807;SDS011;49961;43.970;22.868;2023-04-10T05:12:25;33.40;;;25.60;;
63807;SDS011;49961;43.970;22.868;2023-04-10T05:13:26;37.77;;;26.60;;
63807;SDS011;49961;43.970;22.868;2023-04-10T05:14:26;31.20;;;25.17;;
63807;SDS011;49961;43.970;22.868;2023-04-10T05:15:27;31.43;;;26.63;;
63807;SDS011;49961;43.970;22.868;2023-04-10T05:16:27;27.67;;;23.60;;
63807;SDS011;49961;43.970;22.868;2023-04-10T05:17:28;32.73;;;24.47;;
63807;SDS011;49961;43.970;22.868;2023-04-10T05:18:28;28.17;;;23.83;;
63807;SDS011;49961;43.970;22.868;2023-04-10T05:19:28;30.70;;;23.37;;
63807;SDS011;49961;43.970;22.868;2023-04-10T05:20:29;25.80;;;22.90;;
63807;SDS011;49961;43.970;22.868;2023-04-10T05:21:30;21.97;;;19.60;;
63807;SDS011;49961;43.970;22.868;2023-04-10T05:22:30;21.77;;;19.47;;
63807;SDS011;49961;43.970;22.868;2023-04-10T05:23:31;20.77;;;18.80;;
63807;SDS011;49961;43.970;22.868;2023-04-10T05:24:31;20.37;;;18.27;;
63807;SDS011;49961;43.970;22.868;2023-04-10T05:25:32;20.97;;;18.77;;
63807;SDS011;49961;43.970;22.868;2023-04-10T05:26:33;20.03;;;18.13;;
63807;SDS011;49961;43.970;22.868;2023-04-10T05:27:33;20.70;;;18.60;;
63807;SDS011;49961;43.970;22.868;2023-04-10T05:28:33;22.47;;;20.13;;
63807;SDS011;49961;43.970;22.868;2023-04-10T05:29:34;21.90;;;19.80;;
63807;SDS011;49961;43.970;22.868;2023-04-10T05:30:34;21.77;;;19.50;;
63807;SDS011;49961;43.970;22.868;2023-04-10T05:31:35;22.97;;;20.57;;
63807;SDS011;49961;43.970;22.868;2023-04-10T05:32:35;22.37;;;20.17;;
63807;SDS011;49961;43.970;22.868;2023-04-10T05:33:36;23.03;;;20.60;;
63807;SDS011;49961;43.970;22.868;2023-04-10T05:34:36;28.30;;;21.90;;
63807;SDS011;49961;43.970;22.868;2023-04-10T05:35:37;24.50;;;21.93;;
63807;SDS011;49961;43.970;22.868;2023-04-10T05:36:37;26.00;;;21.33;;
63807;SDS011;49961;43.970;22.868;2023-04-10T05:37:37;29.07;;;21.70;;
63807;SDS011;49961;43.970;22.868;2023-04-10T05:38:38;35.27;;;27.40;;
63807;SDS011;49961;43.970;22.868;2023-04-10T05:39:38;31.73;;;27.10;;
63807;SDS011;49961;43.970;22.868;2023-04-10T05:40:39;40.83;;;28.87;;
63807;SDS011;49961;43.970;22.868;2023-04-10T05:41:39;37.80;;;29.40;;
63807;SDS011;49961;43.970;22.868;2023-04-10T05:42:40;33.77;;;28.47;;
63807;SDS011;49961;43.970;22.868;2023-04-10T05:43:40;37.60;;;28.83;;
63807;SDS011;49961;43.970;22.868;2023-04-10T05:44:41;34.67;;;27.77;;
63807;SDS011;49961;43.970;22.868;2023-04-10T05:45:43;35.93;;;26.57;;
63807;SDS011;49961;43.970;22.868;2023-04-10T05:46:44;32.90;;;27.03;;
63807;SDS011;49961;43.970;22.868;2023-04-10T05:47:44;31.97;;;26.83;;
63807;SDS011;49961;43.970;22.868;2023-04-10T05:48:45;34.73;;;26.67;;
63807;SDS011;49961;43.970;22.868;2023-04-10T05:49:45;30.23;;;26.40;;
63807;SDS011;49961;43.970;22.868;2023-04-10T05:50:46;33.17;;;26.10;;
63807;SDS011;49961;43.970;22.868;2023-04-10T05:51:46;38.17;;;26.53;;
63807;SDS011;49961;43.970;22.868;2023-04-10T05:52:49;32.83;;;25.77;;
63807;SDS011;49961;43.970;22.868;2023-04-10T05:53:50;33.60;;;25.37;;
63807;SDS011;49961;43.970;22.868;2023-04-10T05:54:50;32.53;;;25.23;;
63807;SDS011;49961;43.970;22.868;2023-04-10T05:55:51;32.23;;;25.13;;
63807;SDS011;49961;43.970;22.868;2023-04-10T05:56:51;26.37;;;23.57;;
63807;SDS011;49961;43.970;22.868;2023-04-10T05:57:52;27.97;;;24.37;;
63807;SDS011;49961;43.970;22.868;2023-04-10T05:58:53;29.70;;;23.53;;
63807;SDS011;49961;43.970;22.868;2023-04-10T05:59:53;26.07;;;23.23;;
63807;SDS011;49961;43.970;22.868;2023-04-10T06:00:54;28.30;;;23.73;;
63807;SDS011;49961;43.970;22.868;2023-04-10T06:01:55;26.37;;;23.27;;
63807;SDS011;49961;43.970;22.868;2023-04-10T06:02:56;26.60;;;23.03;;
63807;SDS011;49961;43.970;22.868;2023-04-10T06:03:56;26.30;;;22.57;;
63807;SDS011;49961;43.970;22.868;2023-04-10T06:04:57;28.53;;;23.07;;
63807;SDS011;49961;43.970;22.868;2023-04-10T06:05:58;27.13;;;23.37;;
63807;SDS011;49961;43.970;22.868;2023-04-10T06:07:00;29.10;;;22.13;;
63807;SDS011;49961;43.970;22.868;2023-04-10T06:08:00;25.50;;;22.73;;
63807;SDS011;49961;43.970;22.868;2023-04-10T06:09:01;27.37;;;21.37;;